sensor_id;sensor_type;location;lat;lon;timestamp;P1;durP1;ratioP1;P2;durP2;ratioP2
16994;SDS011;8614;48.522;9.206;2023-02-15T03:02:42;22.70;;;20.30;;
16994;SDS011;8614;48.522;9.206;2023-02-15T03:05:14;23.37;;;20.87;;
16994;SDS011;8614;48.522;9.206;2023-02-15T03:07:44;24.57;;;19.63;;
16994;SDS011;8614;48.522;9.206;2023-02-15T03:10:15;24.33;;;20.33;;
16994;SDS011;8614;48.522;9.206;2023-02-15T03:12:43;23.07;;;20.13;;
16994;SDS011;8614;48.522;9.206;2023-02-15T03:15:14;24.37;;;20.47;;
16994;SDS011;8614;48.522;9.206;2023-02-15T03:17:46;25.67;;;21.10;;
16994;SDS011;8614;48.522;9.206;2023-02-15T03:20:18;25.40;;;22.17;;
16994;SDS011;8614;48.522;9.206;2023-02-15T03:22:52;24.27;;;21.70;;
16994;SDS011;8614;48.522;9.206;2023-02-15T03:25:22;25.67;;;21.53;;
16994;SDS011;8614;48.522;9.206;2023-02-15T03:27:52;24.50;;;21.90;;
16994;SDS011;8614;48.522;9.206;2023-02-15T03:30:25;21.83;;;19.50;;
16994;SDS011;8614;48.522;9.206;2023-02-15T03:32:55;23.23;;;20.73;;
16994;SDS011;8614;48.522;9.206;2023-02-15T03:35:24;21.87;;;19.43;;
16994;SDS011;8614;48.522;9.206;2023-02-15T03:37:56;24.30;;;21.70;;
16994;SDS011;8614;48.522;9.206;2023-02-15T03:40:28;24.90;;;21.13;;
16994;SDS011;8614;48.522;9.206;2023-02-15T03:43:16;26.97;;;22.07;;
16994;SDS011;8614;48.522;9.206;2023-02-15T03:45:47;26.73;;;22.27;;
16994;SDS011;8614;48.522;9.206;2023-02-15T03:48:22;24.47;;;21.87;;
16994;SDS011;8614;48.522;9.206;2023-02-15T03:50:53;25.77;;;20.67;;
16994;SDS011;8614;48.522;9.206;2023-02-15T03:53:41;24.13;;;21.10;;
16994;SDS011;8614;48.522;9.206;2023-02-15T03:56:09;31.43;;;23.50;;
16994;SDS011;8614;48.522;9.206;2023-02-15T03:58:36;24.60;;;21.80;;
16994;SDS011;8614;48.522;9.206;2023-02-15T04:01:23;26.20;;;21.50;;
16994;SDS011;8614;48.522;9.206;2023-02-15T04:04:24;27.50;;;23.07;;
16994;SDS011;8614;48.522;9.206;2023-02-15T04:06:54;26.57;;;23.27;;
16994;SDS011;8614;48.522;9.206;2023-02-15T04:09:21;25.63;;;22.87;;
16994;SDS011;8614;48.522;9.206;2023-02-15T04:12:05;25.67;;;22.90;;
16994;SDS011;8614;48.522;9.206;2023-02-15T04:14:32;24.80;;;21.83;;
16994;SDS011;8614;48.522;9.206;2023-02-15T04:17:17;25.50;;;22.67;;
16994;SDS011;8614;48.522;9.206;2023-02-15T04:19:45;25.90;;;22.33;;
16994;SDS011;8614;48.522;9.206;2023-02-15T04:22:29;25.13;;;22.23;;
16994;SDS011;8614;48.522;9.206;2023-02-15T04:25:14;25.17;;;22.23;;
16994;SDS011;8614;48.522;9.206;2023-02-15T04:27:42;28.10;;;22.40;;
16994;SDS011;8614;48.522;9.206;2023-02-15T04:30:10;26.47;;;23.63;;
16994;SDS011;8614;48.522;9.206;2023-02-15T04:32:38;26.47;;;22.77;;
16994;SDS011;8614;48.522;9.206;2023-02-15T04:35:07;28.13;;;23.60;;
16994;SDS011;8614;48.522;9.206;2023-02-15T04:37:36;25.43;;;22.63;;
16994;SDS011;8614;48.522;9.206;2023-02-15T04:40:04;27.00;;;21.80;;
16994;SDS011;8614;48.522;9.206;2023-02-15T04:42:35;26.47;;;22.47;;
16994;SDS011;8614;48.522;9.206;2023-02-15T04:45:02;25.67;;;22.87;;
16994;SDS011;8614;48.522;9.206;2023-02-15T04:47:30;25.47;;;22.77;;
16994;SDS011;8614;48.522;9.206;2023-02-15T04:49:57;29.27;;;23.50;;
16994;SDS011;8614;48.522;9.206;2023-02-15T04:52:25;26.07;;;23.23;;
16994;SDS011;8614;48.522;9.206;2023-02-15T04:54:52;25.93;;;23.13;;
16994;SDS011;8614;48.522;9.206;2023-02-15T04:57:19;28.20;;;23.63;;
16994;SDS011;8614;48.522;9.206;2023-02-15T04:59:45;26.00;;;23.27;;
16994;SDS011;8614;48.522;9.206;2023-02-15T05:02:12;27.90;;;24.30;;
16994;SDS011;8614;48.522;9.206;2023-02-15T05:04:39;27.27;;;23.73;;
16994;SDS011;8614;48.522;9.206;2023-02-15T05:07:06;30.13;;;23.37;;
16994;SDS011;8614;48.522;9.206;2023-02-15T05:09:34;30.03;;;24.70;;
16994;SDS011;8614;48.522;9.206;2023-02-15T05:12:01;31.50;;;24.63;;
16994;SDS011;8614;48.522;9.206;2023-02-15T05:14:27;29.53;;;24.87;;
16994;SDS011;8614;48.522;9.206;2023-02-15T05:16:54;31.03;;;25.37;;
16994;SDS011;8614;48.522;9.206;2023-02-15T05:19:21;27.00;;;23.03;;
16994;SDS011;8614;48.522;9.206;2023-02-15T05:21:49;27.20;;;23.30;;
16994;SDS011;8614;48.522;9.206;2023-02-15T05:24:16;26.07;;;23.13;;
16994;SDS011;8614;48.522;9.206;2023-02-15T05:27:02;27.70;;;23.03;;
16994;SDS011;8614;48.522;9.206;2023-02-15T05:29:42;26.97;;;22.23;;
16994;SDS011;8614;48.522;9.206;2023-02-15T05:32:10;26.03;;;23.17;;
16994;SDS011;8614;48.522;9.206;2023-02-15T05:34:38;27.20;;;24.40;;
16994;SDS011;8614;48.522;9.206;2023-02-15T05:37:05;28.00;;;24.30;;
16994;SDS011;8614;48.522;9.206;2023-02-15T05:39:33;28.47;;;23.77;;
16994;SDS011;8614;48.522;9.206;2023-02-15T05:42:01;25.40;;;22.87;;
16994;SDS011;8614;48.522;9.206;2023-02-15T05:44:29;28.07;;;24.23;;
16994;SDS011;8614;48.522;9.206;2023-02-15T05:46:56;33.73;;;25.10;;
16994;SDS011;8614;48.522;9.206;2023-02-15T05:49:22;27.27;;;23.97;;
16994;SDS011;8614;48.522;9.206;2023-02-15T05:51:49;26.60;;;23.67;;
16994;SDS011;8614;48.522;9.206;2023-02-15T05:54:16;30.63;;;23.60;;
16994;SDS011;8614;48.522;9.206;2023-02-15T05:56:43;26.00;;;23.23;;
16994;SDS011;8614;48.522;9.206;2023-02-15T05:59:11;27.97;;;22.70;;
16994;SDS011;8614;48.522;9.206;2023-02-15T06:01:38;25.50;;;22.53;;
16994;SDS011;8614;48.522;9.206;2023-02-15T06:04:05;27.13;;;22.50;;
16994;SDS011;8614;48.522;9.206;2023-02-15T06:06:32;23.87;;;21.47;;
16994;SDS011;8614;48.522;9.206;2023-02-15T06:08:59;26.10;;;23.30;;
16994;SDS011;8614;48.522;9.206;2023-02-15T06:11:26;27.47;;;24.47;;
16994;SDS011;8614;48.522;9.206;2023-02-15T06:13:53;28.97;;;25.87;;
16994;SDS011;8614;48.522;9.206;2023-02-15T06:16:21;27.93;;;24.93;;
16994;SDS011;8614;48.522;9.206;2023-02-15T06:18:48;26.40;;;23.67;;
16994;SDS011;8614;48.522;9.206;2023-02-15T06:21:15;27.97;;;25.10;;
16994;SDS011;8614;48.522;9.206;2023-02-15T06:23:42;28.27;;;25.20;;
16994;SDS011;8614;48.522;9.206;2023-02-15T06:26:09;30.53;;;25.50;;
16994;SDS011;8614;48.522;9.206;2023-02-15T06:28:36;27.87;;;24.93;;
16994;SDS011;8614;48.522;9.206;2023-02-15T06:31:03;28.17;;;25.17;;
16994;SDS011;8614;48.522;9.206;2023-02-15T06:33:31;28.83;;;25.53;;
16994;SDS011;8614;48.522;9.206;2023-02-15T06:35:59;31.40;;;25.37;;
16994;SDS011;8614;48.522;9.206;2023-02-15T06:38:26;31.27;;;26.30;;
16994;SDS011;8614;48.522;9.206;2023-02-15T06:40:53;30.83;;;25.83;;
16994;SDS011;8614;48.522;9.206;2023-02-15T06:43:20;32.10;;;25.87;;
16994;SDS011;8614;48.522;9.206;2023-02-15T06:45:47;32.97;;;27.73;;
16994;SDS011;8614;48.522;9.206;2023-02-15T06:48:14;30.30;;;25.47;;
16994;SDS011;8614;48.522;9.206;2023-02-15T06:50:42;31.60;;;25.37;;
16994;SDS011;8614;48.522;9.206;2023-02-15T06:53:09;32.60;;;26.23;;
16994;SDS011;8614;48.522;9.206;2023-02-15T06:55:36;30.63;;;25.47;;
16994;SDS011;8614;48.522;9.206;2023-02-15T06:58:03;29.57;;;25.40;;
16994;SDS011;8614;48.522;9.206;2023-02-15T07:00:30;28.40;;;23.93;;
16994;SDS011;8614;48.522;9.206;2023-02-15T07:02:57;30.30;;;25.53;;
16994;SDS011;8614;48.522;9.206;2023-02-15T07:05:25;32.27;;;26.47;;
16994;SDS011;8614;48.522;9.206;2023-02-15T07:07:57;32.53;;;26.67;;
16994;SDS011;8614;48.522;9.206;2023-02-15T07:10:24;32.07;;;26.40;;
16994;SDS011;8614;48.522;9.206;2023-02-15T07:12:51;27.87;;;23.50;;
16994;SDS011;8614;48.522;9.206;2023-02-15T07:15:17;30.70;;;26.47;;
16994;SDS011;8614;48.522;9.206;2023-02-15T07:17:47;33.47;;;25.87;;
16994;SDS011;8614;48.522;9.206;2023-02-15T07:20:14;28.60;;;25.50;;
16994;SDS011;8614;48.522;9.206;2023-02-15T07:22:43;29.67;;;26.10;;
16994;SDS011;8614;48.522;9.206;2023-02-15T07:25:11;33.63;;;26.60;;
16994;SDS011;8614;48.522;9.206;2023-02-15T07:27:39;29.77;;;24.97;;
16994;SDS011;8614;48.522;9.206;2023-02-15T07:30:07;26.67;;;23.87;;
16994;SDS011;8614;48.522;9.206;2023-02-15T07:32:35;26.03;;;23.13;;
16994;SDS011;8614;48.522;9.206;2023-02-15T07:35:22;26.40;;;23.57;;
16994;SDS011;8614;48.522;9.206;2023-02-15T07:37:48;26.30;;;23.43;;
16994;SDS011;8614;48.522;9.206;2023-02-15T07:40:17;27.70;;;24.10;;
16994;SDS011;8614;48.522;9.206;2023-02-15T07:42:44;27.20;;;24.00;;
16994;SDS011;8614;48.522;9.206;2023-02-15T07:45:10;26.63;;;23.77;;
16994;SDS011;8614;48.522;9.206;2023-02-15T07:47:39;31.97;;;24.43;;
16994;SDS011;8614;48.522;9.206;2023-02-15T07:50:06;27.40;;;24.43;;
16994;SDS011;8614;48.522;9.206;2023-02-15T07:52:33;26.70;;;23.87;;
16994;SDS011;8614;48.522;9.206;2023-02-15T07:55:00;25.40;;;22.77;;
16994;SDS011;8614;48.522;9.206;2023-02-15T07:57:29;25.30;;;22.63;;
16994;SDS011;8614;48.522;9.206;2023-02-15T07:59:56;25.67;;;23.13;;
16994;SDS011;8614;48.522;9.206;2023-02-15T08:02:22;25.33;;;22.73;;
16994;SDS011;8614;48.522;9.206;2023-02-15T08:04:49;24.13;;;21.60;;
16994;SDS011;8614;48.522;9.206;2023-02-15T08:07:16;24.27;;;21.93;;
16994;SDS011;8614;48.522;9.206;2023-02-15T08:09:43;25.30;;;22.90;;
16994;SDS011;8614;48.522;9.206;2023-02-15T08:12:10;25.77;;;23.30;;
16994;SDS011;8614;48.522;9.206;2023-02-15T08:14:38;22.23;;;20.13;;
16994;SDS011;8614;48.522;9.206;2023-02-15T08:17:04;22.80;;;20.57;;
16994;SDS011;8614;48.522;9.206;2023-02-15T08:19:32;22.37;;;20.17;;
16994;SDS011;8614;48.522;9.206;2023-02-15T08:22:00;23.03;;;20.60;;
16994;SDS011;8614;48.522;9.206;2023-02-15T08:24:29;22.20;;;20.13;;
16994;SDS011;8614;48.522;9.206;2023-02-15T08:26:57;22.63;;;20.53;;
16994;SDS011;8614;48.522;9.206;2023-02-15T08:29:25;20.43;;;18.63;;
16994;SDS011;8614;48.522;9.206;2023-02-15T08:31:54;21.47;;;19.37;;
16994;SDS011;8614;48.522;9.206;2023-02-15T08:34:23;20.07;;;18.13;;
16994;SDS011;8614;48.522;9.206;2023-02-15T08:36:50;20.27;;;18.37;;
16994;SDS011;8614;48.522;9.206;2023-02-15T08:39:17;20.03;;;18.00;;
16994;SDS011;8614;48.522;9.206;2023-02-15T08:41:44;19.37;;;17.47;;
16994;SDS011;8614;48.522;9.206;2023-02-15T08:44:12;19.63;;;17.83;;
16994;SDS011;8614;48.522;9.206;2023-02-15T08:46:41;21.23;;;18.70;;
16994;SDS011;8614;48.522;9.206;2023-02-15T08:49:11;19.83;;;18.00;;
16994;SDS011;8614;48.522;9.206;2023-02-15T08:51:39;18.40;;;16.80;;
16994;SDS011;8614;48.522;9.206;2023-02-15T08:54:07;17.13;;;15.57;;
16994;SDS011;8614;48.522;9.206;2023-02-15T08:56:36;18.40;;;16.50;;
16994;SDS011;8614;48.522;9.206;2023-02-15T08:59:04;18.27;;;16.47;;
16994;SDS011;8614;48.522;9.206;2023-02-15T09:01:32;13.20;;;11.13;;
16994;SDS011;8614;48.522;9.206;2023-02-15T09:04:01;15.90;;;11.30;;
16994;SDS011;8614;48.522;9.206;2023-02-15T09:06:31;12.13;;;10.70;;
16994;SDS011;8614;48.522;9.206;2023-02-15T09:08:58;15.73;;;12.03;;
16994;SDS011;8614;48.522;9.206;2023-02-15T09:11:26;15.30;;;12.87;;
16994;SDS011;8614;48.522;9.206;2023-02-15T09:13:56;18.53;;;14.03;;
16994;SDS011;8614;48.522;9.206;2023-02-15T09:16:25;19.13;;;14.50;;
16994;SDS011;8614;48.522;9.206;2023-02-15T09:18:54;25.10;;;17.80;;
16994;SDS011;8614;48.522;9.206;2023-02-15T09:21:22;26.70;;;19.63;;
16994;SDS011;8614;48.522;9.206;2023-02-15T09:23:54;33.47;;;21.20;;
16994;SDS011;8614;48.522;9.206;2023-02-15T09:26:23;26.10;;;19.97;;
16994;SDS011;8614;48.522;9.206;2023-02-15T09:28:51;27.90;;;24.97;;
16994;SDS011;8614;48.522;9.206;2023-02-15T09:31:21;20.23;;;15.73;;
16994;SDS011;8614;48.522;9.206;2023-02-15T09:33:49;25.57;;;23.23;;
16994;SDS011;8614;48.522;9.206;2023-02-15T09:36:20;23.70;;;21.50;;
16994;SDS011;8614;48.522;9.206;2023-02-15T09:38:52;25.17;;;22.53;;
16994;SDS011;8614;48.522;9.206;2023-02-15T09:41:29;24.67;;;22.07;;
16994;SDS011;8614;48.522;9.206;2023-02-15T09:44:17;22.10;;;20.10;;
16994;SDS011;8614;48.522;9.206;2023-02-15T09:46:59;22.67;;;20.47;;
16994;SDS011;8614;48.522;9.206;2023-02-15T09:49:38;22.40;;;20.27;;
16994;SDS011;8614;48.522;9.206;2023-02-15T09:52:15;21.10;;;19.17;;
16994;SDS011;8614;48.522;9.206;2023-02-15T09:54:55;20.47;;;18.57;;
16994;SDS011;8614;48.522;9.206;2023-02-15T09:57:35;18.47;;;16.67;;
16994;SDS011;8614;48.522;9.206;2023-02-15T10:00:12;20.17;;;16.87;;
16994;SDS011;8614;48.522;9.206;2023-02-15T10:02:57;17.70;;;15.83;;
16994;SDS011;8614;48.522;9.206;2023-02-15T10:05:42;19.03;;;16.90;;
16994;SDS011;8614;48.522;9.206;2023-02-15T10:11:11;19.27;;;17.63;;
16994;SDS011;8614;48.522;9.206;2023-02-15T10:14:03;20.43;;;18.40;;
16994;SDS011;8614;48.522;9.206;2023-02-15T10:16:45;18.57;;;16.87;;
16994;SDS011;8614;48.522;9.206;2023-02-15T10:19:23;18.73;;;17.03;;
16994;SDS011;8614;48.522;9.206;2023-02-15T10:21:59;18.77;;;17.07;;
16994;SDS011;8614;48.522;9.206;2023-02-15T10:24:39;18.57;;;17.07;;
16994;SDS011;8614;48.522;9.206;2023-02-15T10:27:23;17.67;;;16.23;;
16994;SDS011;8614;48.522;9.206;2023-02-15T10:29:53;18.80;;;17.10;;
16994;SDS011;8614;48.522;9.206;2023-02-15T10:32:32;18.07;;;16.37;;
16994;SDS011;8614;48.522;9.206;2023-02-15T10:35:07;17.63;;;16.07;;
16994;SDS011;8614;48.522;9.206;2023-02-15T10:37:44;18.10;;;16.43;;
16994;SDS011;8614;48.522;9.206;2023-02-15T10:40:22;18.50;;;16.67;;
16994;SDS011;8614;48.522;9.206;2023-02-15T10:43:04;18.10;;;16.40;;
16994;SDS011;8614;48.522;9.206;2023-02-15T10:45:40;18.03;;;16.43;;
16994;SDS011;8614;48.522;9.206;2023-02-15T10:48:25;17.53;;;15.93;;
16994;SDS011;8614;48.522;9.206;2023-02-15T10:51:15;18.23;;;16.63;;
16994;SDS011;8614;48.522;9.206;2023-02-15T10:53:57;21.17;;;19.17;;
16994;SDS011;8614;48.522;9.206;2023-02-15T10:56:36;19.53;;;17.83;;
16994;SDS011;8614;48.522;9.206;2023-02-15T10:59:23;19.07;;;17.37;;
16994;SDS011;8614;48.522;9.206;2023-02-15T11:02:04;20.60;;;18.57;;
16994;SDS011;8614;48.522;9.206;2023-02-15T11:04:53;19.53;;;17.70;;
16994;SDS011;8614;48.522;9.206;2023-02-15T11:07:26;19.03;;;17.23;;
16994;SDS011;8614;48.522;9.206;2023-02-15T11:10:00;18.63;;;16.87;;
16994;SDS011;8614;48.522;9.206;2023-02-15T11:12:33;18.50;;;16.70;;
16994;SDS011;8614;48.522;9.206;2023-02-15T11:15:02;19.90;;;18.00;;
16994;SDS011;8614;48.522;9.206;2023-02-15T11:17:38;20.13;;;18.23;;
16994;SDS011;8614;48.522;9.206;2023-02-15T11:20:09;18.27;;;16.53;;
16994;SDS011;8614;48.522;9.206;2023-02-15T11:22:46;18.27;;;16.47;;
16994;SDS011;8614;48.522;9.206;2023-02-15T11:25:17;16.97;;;15.37;;
16994;SDS011;8614;48.522;9.206;2023-02-15T11:27:45;17.10;;;15.60;;
16994;SDS011;8614;48.522;9.206;2023-02-15T11:30:16;17.30;;;15.50;;
16994;SDS011;8614;48.522;9.206;2023-02-15T11:32:46;17.73;;;16.10;;
16994;SDS011;8614;48.522;9.206;2023-02-15T11:35:18;17.20;;;15.70;;
16994;SDS011;8614;48.522;9.206;2023-02-15T11:37:51;17.87;;;16.17;;
16994;SDS011;8614;48.522;9.206;2023-02-15T11:40:24;17.17;;;15.53;;
16994;SDS011;8614;48.522;9.206;2023-02-15T11:42:55;17.80;;;16.10;;
16994;SDS011;8614;48.522;9.206;2023-02-15T11:45:26;14.37;;;13.20;;
16994;SDS011;8614;48.522;9.206;2023-02-15T11:47:55;16.17;;;14.67;;
16994;SDS011;8614;48.522;9.206;2023-02-15T11:50:23;15.27;;;13.83;;
16994;SDS011;8614;48.522;9.206;2023-02-15T11:52:56;14.87;;;13.57;;
16994;SDS011;8614;48.522;9.206;2023-02-15T11:55:26;14.77;;;13.57;;
16994;SDS011;8614;48.522;9.206;2023-02-15T11:57:55;16.10;;;14.60;;
16994;SDS011;8614;48.522;9.206;2023-02-15T12:00:31;16.70;;;15.20;;
16994;SDS011;8614;48.522;9.206;2023-02-15T12:03:02;16.23;;;14.83;;
16994;SDS011;8614;48.522;9.206;2023-02-15T12:05:35;15.83;;;14.47;;
16994;SDS011;8614;48.522;9.206;2023-02-15T12:08:09;16.37;;;14.97;;
16994;SDS011;8614;48.522;9.206;2023-02-15T12:10:42;15.40;;;14.10;;
16994;SDS011;8614;48.522;9.206;2023-02-15T12:13:18;17.23;;;15.70;;
16994;SDS011;8614;48.522;9.206;2023-02-15T12:15:48;16.53;;;14.93;;
16994;SDS011;8614;48.522;9.206;2023-02-15T12:18:19;17.40;;;15.70;;
16994;SDS011;8614;48.522;9.206;2023-02-15T12:20:51;18.20;;;16.50;;
16994;SDS011;8614;48.522;9.206;2023-02-15T12:23:18;16.70;;;15.20;;
16994;SDS011;8614;48.522;9.206;2023-02-15T12:25:49;16.73;;;15.20;;
16994;SDS011;8614;48.522;9.206;2023-02-15T12:28:23;15.40;;;14.10;;
16994;SDS011;8614;48.522;9.206;2023-02-15T12:30:54;15.87;;;14.40;;
16994;SDS011;8614;48.522;9.206;2023-02-15T12:33:25;16.23;;;14.73;;
16994;SDS011;8614;48.522;9.206;2023-02-15T12:35:56;15.23;;;14.00;;
16994;SDS011;8614;48.522;9.206;2023-02-15T12:38:26;14.67;;;13.40;;
16994;SDS011;8614;48.522;9.206;2023-02-15T12:40:57;14.83;;;13.37;;
16994;SDS011;8614;48.522;9.206;2023-02-15T12:43:26;13.63;;;12.60;;
16994;SDS011;8614;48.522;9.206;2023-02-15T12:45:59;14.13;;;12.93;;
16994;SDS011;8614;48.522;9.206;2023-02-15T12:48:45;14.60;;;13.30;;
16994;SDS011;8614;48.522;9.206;2023-02-15T12:51:13;13.87;;;12.77;;
16994;SDS011;8614;48.522;9.206;2023-02-15T12:53:42;13.13;;;12.13;;
16994;SDS011;8614;48.522;9.206;2023-02-15T12:56:09;13.70;;;12.60;;
16994;SDS011;8614;48.522;9.206;2023-02-15T12:58:36;14.93;;;13.63;;
16994;SDS011;8614;48.522;9.206;2023-02-15T13:01:14;13.77;;;12.67;;
16994;SDS011;8614;48.522;9.206;2023-02-15T13:03:54;13.53;;;12.43;;
16994;SDS011;8614;48.522;9.206;2023-02-15T13:06:23;13.30;;;12.20;;
16994;SDS011;8614;48.522;9.206;2023-02-15T13:08:51;13.37;;;12.37;;
16994;SDS011;8614;48.522;9.206;2023-02-15T13:11:21;15.33;;;13.90;;
16994;SDS011;8614;48.522;9.206;2023-02-15T13:13:53;14.53;;;13.33;;
16994;SDS011;8614;48.522;9.206;2023-02-15T13:16:24;14.13;;;12.93;;
16994;SDS011;8614;48.522;9.206;2023-02-15T13:18:56;13.90;;;12.80;;
16994;SDS011;8614;48.522;9.206;2023-02-15T13:21:25;14.80;;;13.60;;
16994;SDS011;8614;48.522;9.206;2023-02-15T13:23:55;15.00;;;13.70;;
16994;SDS011;8614;48.522;9.206;2023-02-15T13:26:26;17.07;;;15.27;;
16994;SDS011;8614;48.522;9.206;2023-02-15T13:28:58;15.53;;;14.23;;
16994;SDS011;8614;48.522;9.206;2023-02-15T13:31:34;16.10;;;14.87;;
16994;SDS011;8614;48.522;9.206;2023-02-15T13:34:03;15.67;;;14.37;;
16994;SDS011;8614;48.522;9.206;2023-02-15T13:36:38;15.87;;;14.57;;
16994;SDS011;8614;48.522;9.206;2023-02-15T13:39:15;16.43;;;14.97;;
16994;SDS011;8614;48.522;9.206;2023-02-15T13:41:51;17.60;;;16.00;;
16994;SDS011;8614;48.522;9.206;2023-02-15T13:44:44;18.30;;;16.80;;
16994;SDS011;8614;48.522;9.206;2023-02-15T13:47:29;18.20;;;16.70;;
16994;SDS011;8614;48.522;9.206;2023-02-15T13:50:07;17.60;;;16.00;;
16994;SDS011;8614;48.522;9.206;2023-02-15T13:52:47;16.20;;;14.70;;
16994;SDS011;8614;48.522;9.206;2023-02-15T13:55:33;16.53;;;15.03;;
16994;SDS011;8614;48.522;9.206;2023-02-15T13:58:13;17.40;;;15.80;;
16994;SDS011;8614;48.522;9.206;2023-02-15T14:01:04;17.03;;;15.23;;
16994;SDS011;8614;48.522;9.206;2023-02-15T14:03:46;17.73;;;16.17;;
16994;SDS011;8614;48.522;9.206;2023-02-15T14:06:46;15.90;;;14.43;;
16994;SDS011;8614;48.522;9.206;2023-02-15T14:09:28;15.93;;;14.37;;
16994;SDS011;8614;48.522;9.206;2023-02-15T14:12:11;15.50;;;14.20;;
16994;SDS011;8614;48.522;9.206;2023-02-15T14:17:47;15.00;;;13.70;;
16994;SDS011;8614;48.522;9.206;2023-02-15T14:20:24;15.90;;;14.20;;
16994;SDS011;8614;48.522;9.206;2023-02-15T14:22:58;16.00;;;14.63;;
16994;SDS011;8614;48.522;9.206;2023-02-15T14:25:34;15.73;;;14.37;;
16994;SDS011;8614;48.522;9.206;2023-02-15T14:28:08;14.47;;;13.27;;
16994;SDS011;8614;48.522;9.206;2023-02-15T14:30:40;15.50;;;14.20;;
16994;SDS011;8614;48.522;9.206;2023-02-15T14:33:17;15.63;;;14.30;;
16994;SDS011;8614;48.522;9.206;2023-02-15T14:35:57;15.57;;;14.37;;
16994;SDS011;8614;48.522;9.206;2023-02-15T14:38:27;16.07;;;14.67;;
16994;SDS011;8614;48.522;9.206;2023-02-15T14:41:06;16.03;;;14.60;;
16994;SDS011;8614;48.522;9.206;2023-02-15T14:43:42;16.93;;;15.13;;
16994;SDS011;8614;48.522;9.206;2023-02-15T14:46:18;16.37;;;14.90;;
16994;SDS011;8614;48.522;9.206;2023-02-15T14:48:52;16.00;;;14.70;;
16994;SDS011;8614;48.522;9.206;2023-02-15T14:57:24;14.90;;;13.60;;
16994;SDS011;8614;48.522;9.206;2023-02-15T14:59:53;14.97;;;13.73;;
16994;SDS011;8614;48.522;9.206;2023-02-15T15:02:23;15.47;;;14.23;;
16994;SDS011;8614;48.522;9.206;2023-02-15T15:04:55;14.90;;;13.67;;
16994;SDS011;8614;48.522;9.206;2023-02-15T15:07:28;13.70;;;12.67;;
16994;SDS011;8614;48.522;9.206;2023-02-15T15:10:05;14.37;;;13.17;;
16994;SDS011;8614;48.522;9.206;2023-02-15T15:12:53;14.73;;;13.60;;
16994;SDS011;8614;48.522;9.206;2023-02-15T15:15:32;15.33;;;14.07;;
16994;SDS011;8614;48.522;9.206;2023-02-15T15:18:01;15.10;;;13.80;;
16994;SDS011;8614;48.522;9.206;2023-02-15T15:20:42;14.30;;;13.30;;
16994;SDS011;8614;48.522;9.206;2023-02-15T15:26:26;14.20;;;13.10;;
16994;SDS011;8614;48.522;9.206;2023-02-15T15:28:59;13.30;;;12.30;;
16994;SDS011;8614;48.522;9.206;2023-02-15T15:31:29;13.50;;;12.50;;
16994;SDS011;8614;48.522;9.206;2023-02-15T15:34:17;14.03;;;13.03;;
16994;SDS011;8614;48.522;9.206;2023-02-15T15:37:13;15.67;;;14.07;;
16994;SDS011;8614;48.522;9.206;2023-02-15T15:43:23;14.63;;;13.50;;
16994;SDS011;8614;48.522;9.206;2023-02-15T15:46:19;13.97;;;12.77;;
16994;SDS011;8614;48.522;9.206;2023-02-15T15:48:59;13.07;;;12.03;;
16994;SDS011;8614;48.522;9.206;2023-02-15T15:51:29;12.33;;;11.43;;
16994;SDS011;8614;48.522;9.206;2023-02-15T15:53:58;13.00;;;11.90;;
16994;SDS011;8614;48.522;9.206;2023-02-15T15:56:28;12.47;;;11.53;;
16994;SDS011;8614;48.522;9.206;2023-02-15T15:59:00;13.53;;;12.40;;
16994;SDS011;8614;48.522;9.206;2023-02-15T16:01:30;12.87;;;11.97;;
16994;SDS011;8614;48.522;9.206;2023-02-15T16:04:01;13.33;;;12.30;;
16994;SDS011;8614;48.522;9.206;2023-02-15T16:06:29;12.73;;;11.80;;
16994;SDS011;8614;48.522;9.206;2023-02-15T16:08:58;13.43;;;12.23;;
16994;SDS011;8614;48.522;9.206;2023-02-15T16:11:36;12.23;;;11.13;;
16994;SDS011;8614;48.522;9.206;2023-02-15T16:14:09;12.20;;;11.30;;
16994;SDS011;8614;48.522;9.206;2023-02-15T16:16:39;12.47;;;11.47;;
16994;SDS011;8614;48.522;9.206;2023-02-15T16:19:14;11.90;;;10.97;;
16994;SDS011;8614;48.522;9.206;2023-02-15T16:21:46;12.77;;;11.77;;
16994;SDS011;8614;48.522;9.206;2023-02-15T16:27:32;12.50;;;11.40;;
16994;SDS011;8614;48.522;9.206;2023-02-15T16:30:17;12.40;;;11.40;;
16994;SDS011;8614;48.522;9.206;2023-02-15T16:32:47;13.00;;;11.90;;
16994;SDS011;8614;48.522;9.206;2023-02-15T16:35:15;12.23;;;11.33;;
16994;SDS011;8614;48.522;9.206;2023-02-15T16:37:44;13.33;;;12.17;;
16994;SDS011;8614;48.522;9.206;2023-02-15T16:40:24;13.10;;;12.00;;
16994;SDS011;8614;48.522;9.206;2023-02-15T16:43:04;12.53;;;11.43;;
16994;SDS011;8614;48.522;9.206;2023-02-15T16:45:38;13.53;;;12.30;;
16994;SDS011;8614;48.522;9.206;2023-02-15T16:48:06;12.70;;;11.70;;
16994;SDS011;8614;48.522;9.206;2023-02-15T16:50:38;13.13;;;12.03;;
16994;SDS011;8614;48.522;9.206;2023-02-15T16:53:07;12.63;;;11.60;;
16994;SDS011;8614;48.522;9.206;2023-02-15T16:55:43;12.90;;;11.80;;
16994;SDS011;8614;48.522;9.206;2023-02-15T16:58:14;13.23;;;12.10;;
16994;SDS011;8614;48.522;9.206;2023-02-15T17:00:44;12.33;;;11.43;;
16994;SDS011;8614;48.522;9.206;2023-02-15T17:03:21;12.10;;;11.10;;
16994;SDS011;8614;48.522;9.206;2023-02-15T17:05:50;12.00;;;10.93;;
16994;SDS011;8614;48.522;9.206;2023-02-15T17:08:19;11.30;;;10.40;;
16994;SDS011;8614;48.522;9.206;2023-02-15T17:11:08;12.60;;;11.50;;
16994;SDS011;8614;48.522;9.206;2023-02-15T17:13:39;13.00;;;11.90;;
16994;SDS011;8614;48.522;9.206;2023-02-15T17:16:29;13.10;;;12.00;;
16994;SDS011;8614;48.522;9.206;2023-02-15T17:18:58;13.23;;;12.23;;
16994;SDS011;8614;48.522;9.206;2023-02-15T17:21:28;13.93;;;12.83;;
16994;SDS011;8614;48.522;9.206;2023-02-15T17:23:59;13.57;;;12.37;;
16994;SDS011;8614;48.522;9.206;2023-02-15T17:26:30;13.87;;;12.63;;
16994;SDS011;8614;48.522;9.206;2023-02-15T17:29:05;13.90;;;12.73;;
16994;SDS011;8614;48.522;9.206;2023-02-15T17:31:47;14.83;;;13.60;;
16994;SDS011;8614;48.522;9.206;2023-02-15T17:34:43;15.07;;;13.67;;
16994;SDS011;8614;48.522;9.206;2023-02-15T17:37:43;14.80;;;13.60;;
16994;SDS011;8614;48.522;9.206;2023-02-15T17:40:18;15.83;;;14.43;;
16994;SDS011;8614;48.522;9.206;2023-02-15T17:43:08;14.60;;;13.27;;
16994;SDS011;8614;48.522;9.206;2023-02-15T17:45:52;16.37;;;14.87;;
16994;SDS011;8614;48.522;9.206;2023-02-15T17:48:45;16.33;;;14.73;;
16994;SDS011;8614;48.522;9.206;2023-02-15T17:51:13;15.67;;;14.23;;
16994;SDS011;8614;48.522;9.206;2023-02-15T17:53:41;16.50;;;14.97;;
16994;SDS011;8614;48.522;9.206;2023-02-15T17:57:11;20.07;;;17.70;;
16994;SDS011;8614;48.522;9.206;2023-02-15T17:59:59;17.87;;;16.20;;
16994;SDS011;8614;48.522;9.206;2023-02-15T18:39:13;18.47;;;16.57;;
16994;SDS011;8614;48.522;9.206;2023-02-15T18:41:52;18.97;;;16.53;;
16994;SDS011;8614;48.522;9.206;2023-02-15T18:44:19;17.63;;;15.90;;
16994;SDS011;8614;48.522;9.206;2023-02-15T18:46:56;18.37;;;16.50;;
16994;SDS011;8614;48.522;9.206;2023-02-15T18:49:28;20.23;;;16.90;;
16994;SDS011;8614;48.522;9.206;2023-02-15T18:52:33;19.47;;;17.27;;
16994;SDS011;8614;48.522;9.206;2023-02-15T19:01:54;19.93;;;17.73;;
16994;SDS011;8614;48.522;9.206;2023-02-15T19:05:42;25.30;;;18.63;;
16994;SDS011;8614;48.522;9.206;2023-02-15T19:08:33;20.70;;;17.23;;
16994;SDS011;8614;48.522;9.206;2023-02-15T19:11:33;23.10;;;18.67;;
16994;SDS011;8614;48.522;9.206;2023-02-15T19:14:24;20.40;;;18.20;;
16994;SDS011;8614;48.522;9.206;2023-02-15T19:17:20;21.03;;;18.10;;